Time;durP1;ratioP1;P1;durP2;ratioP2;P2;SDS_P1;SDS_P2;PMS_P1;PMS_P2;Temp;Humidity;BMP_temperature;BMP_pressure;BME280_temperature;BME280_humidity;BME280_pressure;Samples;Min_cycle;Max_cycle;Signal;HPM_P1;HPM_P2
2023/07/09 00:01:41;;;;;;;11.85;4.45;;;21.20;88.80;;;;;;4855541;29;20080;-77
2023/07/09 00:04:25;;;;;;;5.90;3.83;;;21.10;89.20;;;;;;4858109;29;20046;-83
2023/07/09 00:06:53;;;;;;;7.95;4.80;;;21.40;88.90;;;;;;4872320;29;20064;-76
2023/07/09 00:09:21;;;;;;;7.80;4.78;;;21.30;89.20;;;;;;4990055;23;20068;-81
2023/07/09 00:11:59;;;;;;;11.15;4.80;;;21.10;89.50;;;;;;4864320;29;20057;-84
2023/07/09 00:15:15;;;;;;;7.82;4.50;;;21.10;89.70;;;;;;4851020;29;20089;-83
2023/07/09 00:17:51;;;;;;;7.80;4.50;;;21.40;89.40;;;;;;4865033;29;20086;-87
2023/07/09 00:20:37;;;;;;;6.70;4.43;;;21.40;89.10;;;;;;4844620;29;20122;-82
2023/07/09 00:23:20;;;;;;;7.72;4.70;;;21.60;88.30;;;;;;4861469;29;20060;-87
2023/07/09 00:25:48;;;;;;;10.38;4.80;;;21.00;89.90;;;;;;4850180;29;20046;-86
2023/07/09 00:28:17;;;;;;;7.28;4.60;;;21.00;90.00;;;;;;4851990;29;20050;-83
2023/07/09 00:30:45;;;;;;;6.65;4.45;;;21.10;89.90;;;;;;4850820;29;20042;-83
2023/07/09 00:33:21;;;;;;;7.53;4.95;;;21.10;89.70;;;;;;4848656;29;20038;-76
2023/07/09 00:36:05;;;;;;;9.95;4.78;;;21.20;90.10;;;;;;4869531;29;20144;-83
2023/07/09 00:38:47;;;;;;;6.72;4.63;;;21.20;89.70;;;;;;4860531;29;20094;-84
2023/07/09 00:41:49;;;;;;;7.75;4.60;;;21.40;89.90;;;;;;4858138;29;20074;-78
2023/07/09 00:44:30;;;;;;;6.35;4.60;;;21.40;89.70;;;;;;4853020;29;20042;-82
2023/07/09 00:47:03;;;;;;;8.57;4.93;;;21.00;90.30;;;;;;4856216;29;20042;-83
2023/07/09 00:49:46;;;;;;;7.15;4.60;;;21.10;90.60;;;;;;4842926;29;20046;-82
2023/07/09 00:52:33;;;;;;;11.05;4.53;;;21.10;90.40;;;;;;4845147;29;20445;-83
2023/07/09 00:55:38;;;;;;;9.43;4.72;;;21.00;90.90;;;;;;4841848;29;20122;-81
2023/07/09 00:58:09;;;;;;;7.05;4.35;;;20.80;91.00;;;;;;4869387;29;20109;-86
2023/07/09 01:00:56;;;;;;;7.75;4.30;;;21.00;91.00;;;;;;4852143;29;20438;-83
2023/07/09 01:03:33;;;;;;;7.90;4.82;;;21.10;90.90;;;;;;4851066;29;20077;-83
2023/07/09 01:06:12;;;;;;;8.10;4.30;;;20.90;91.50;;;;;;4852617;29;20049;-83
2023/07/09 01:08:57;;;;;;;7.90;4.38;;;20.50;91.50;;;;;;4854485;29;20046;-86
2023/07/09 01:12:08;;;;;;;7.30;4.63;;;20.40;91.90;;;;;;4835798;29;20384;-83
2023/07/09 01:14:37;;;;;;;10.10;5.13;;;20.50;92.20;;;;;;4831973;29;20055;-79
2023/07/09 01:17:20;;;;;;;8.55;4.40;;;20.70;92.00;;;;;;4786386;30;20047;-84
2023/07/09 01:19:50;;;;;;;9.93;4.85;;;20.50;92.10;;;;;;4789941;29;20058;-82
2023/07/09 01:22:20;;;;;;;6.55;4.55;;;20.40;92.50;;;;;;4765056;30;20058;-85
2023/07/09 01:25:05;;;;;;;8.05;4.72;;;20.40;92.90;;;;;;4777578;29;20051;-81
2023/07/09 01:27:44;;;;;;;7.13;4.50;;;20.50;92.70;;;;;;4792413;30;20055;-77
2023/07/09 01:30:28;;;;;;;7.97;4.88;;;20.40;93.00;;;;;;4776443;30;20047;-76
2023/07/09 01:33:06;;;;;;;7.95;4.90;;;20.10;93.70;;;;;;4877112;23;20378;-85
2023/07/09 01:36:00;;;;;;;7.10;4.90;;;20.00;93.90;;;;;;4876915;29;20048;-79
2023/07/09 01:38:37;;;;;;;8.07;4.72;;;20.10;93.90;;;;;;4872327;29;20120;-81
2023/07/09 01:41:04;;;;;;;13.25;5.05;;;20.10;94.20;;;;;;4875513;29;20032;-83
2023/07/09 01:43:34;;;;;;;7.38;4.43;;;20.30;94.10;;;;;;4873208;29;20037;-79
2023/07/09 01:46:04;;;;;;;8.38;4.53;;;20.00;94.30;;;;;;4872141;29;20136;-86
2023/07/09 01:49:10;;;;;;;8.15;4.72;;;20.20;94.30;;;;;;4856307;29;20075;-86
2023/07/09 01:51:55;;;;;;;6.63;4.07;;;20.20;94.40;;;;;;4884091;29;20056;-82
2023/07/09 01:54:23;;;;;;;9.27;5.10;;;19.70;95.70;;;;;;4886983;29;20124;-83
2023/07/09 01:56:51;;;;;;;7.55;4.15;;;20.00;95.70;;;;;;4885306;29;20097;-84
2023/07/09 01:59:24;;;;;;;9.95;4.68;;;20.00;95.70;;;;;;4885683;29;20037;-86
2023/07/09 02:02:56;;;;;;;7.07;4.50;;;20.30;95.50;;;;;;4844533;29;20561;-79
2023/07/09 02:05:37;;;;;;;6.63;4.30;;;20.50;95.10;;;;;;4874170;29;20073;-83
2023/07/09 02:08:13;;;;;;;8.45;4.60;;;20.40;95.20;;;;;;4886800;29;20057;-86
2023/07/09 02:10:51;;;;;;;7.07;4.60;;;20.20;95.40;;;;;;4885661;29;20508;-83
2023/07/09 02:13:26;;;;;;;6.80;4.47;;;19.90;96.10;;;;;;4840215;29;20049;-84
2023/07/09 02:15:53;;;;;;;6.05;4.10;;;19.90;96.30;;;;;;4867565;29;20042;-85
2023/07/09 02:18:20;;;;;;;7.13;4.32;;;20.10;96.60;;;;;;4850151;29;20050;-85
2023/07/09 02:20:53;;;;;;;8.25;4.50;;;20.30;96.10;;;;;;4866653;29;20160;-84
2023/07/09 02:23:27;;;;;;;8.30;4.88;;;20.30;96.00;;;;;;4846244;29;20057;-83
2023/07/09 02:25:54;;;;;;;6.43;4.28;;;19.90;96.70;;;;;;4863582;29;20485;-82
2023/07/09 02:28:21;;;;;;;7.13;4.75;;;20.10;96.70;;;;;;4866246;29;20038;-77
2023/07/09 02:30:49;;;;;;;6.95;4.93;;;19.90;97.00;;;;;;4848121;29;20077;-74
2023/07/09 02:36:12;;;;;;;8.15;4.75;;;20.30;96.70;;;;;;4892382;23;20057;-76
2023/07/09 02:38:48;;;;;;;7.35;4.47;;;20.30;96.70;;;;;;4866181;29;20438;-83
2023/07/09 02:41:19;;;;;;;8.50;4.82;;;20.40;96.80;;;;;;4912044;23;20045;-80
2023/07/09 02:43:54;;;;;;;7.43;4.68;;;20.40;96.90;;;;;;4863952;29;20091;-85
2023/07/09 02:46:24;;;;;;;8.00;4.97;;;20.40;96.80;;;;;;4880466;29;20102;-85
2023/07/09 02:48:55;;;;;;;7.63;4.57;;;20.40;96.80;;;;;;4867462;29;20038;-84
2023/07/09 02:51:24;;;;;;;8.80;4.55;;;20.40;96.80;;;;;;4867011;29;20658;-87
2023/07/09 02:53:58;;;;;;;8.80;6.20;;;20.40;96.80;;;;;;4989155;23;20069;-76
2023/07/09 02:56:25;;;;;;;8.40;4.53;;;20.40;97.10;;;;;;4887017;29;20056;-78
2023/07/09 02:58:53;;;;;;;9.85;4.93;;;20.30;97.70;;;;;;4884825;29;20056;-85
2023/07/09 03:01:24;;;;;;;6.55;4.38;;;20.20;97.70;;;;;;4884477;29;20065;-83
2023/07/09 03:03:59;;;;;;;8.63;4.50;;;20.20;97.90;;;;;;4883958;29;20096;-79
2023/07/09 03:06:32;;;;;;;7.53;4.85;;;19.90;98.40;;;;;;4871110;29;20511;-80
2023/07/09 03:09:00;;;;;;;6.72;4.68;;;19.80;98.90;;;;;;4882518;29;20100;-80
2023/07/09 03:11:35;;;;;;;7.80;4.88;;;19.30;99.60;;;;;;4866461;29;20083;-85
2023/07/09 03:14:05;;;;;;;8.45;4.47;;;19.00;99.90;;;;;;4885335;29;20447;-80
2023/07/09 03:16:37;;;;;;;8.88;4.90;;;18.70;99.90;;;;;;4853883;29;20053;-83
2023/07/09 03:19:07;;;;;;;8.60;4.95;;;18.60;99.90;;;;;;4874473;29;20433;-87
2023/07/09 03:21:40;;;;;;;6.72;4.93;;;18.50;99.90;;;;;;4878837;29;20045;-80
2023/07/09 03:24:18;;;;;;;7.05;4.63;;;18.70;99.90;;;;;;4850714;29;20053;-83
2023/07/09 03:26:48;;;;;;;7.03;5.03;;;18.80;99.90;;;;;;4879002;29;20041;-79
2023/07/09 03:29:16;;;;;;;8.52;5.30;;;18.90;99.90;;;;;;4863475;29;20049;-80
2023/07/09 03:31:43;;;;;;;7.82;4.63;;;19.10;99.90;;;;;;4879950;29;20045;-75
2023/07/09 03:34:11;;;;;;;8.10;4.88;;;19.30;99.90;;;;;;4879201;29;20486;-77
2023/07/09 03:36:38;;;;;;;7.03;5.05;;;19.50;99.90;;;;;;4880297;29;20411;-74
2023/07/09 03:39:11;;;;;;;9.25;4.85;;;19.60;99.90;;;;;;4880485;29;20041;-82
2023/07/09 03:41:38;;;;;;;8.68;5.35;;;19.70;99.90;;;;;;4864742;29;20052;-75
2023/07/09 03:44:08;;;;;;;9.65;5.57;;;19.60;99.90;;;;;;4863286;29;20059;-80
2023/07/09 03:46:36;;;;;;;8.60;5.20;;;19.50;99.90;;;;;;4863923;29;20052;-73
2023/07/09 03:49:09;;;;;;;7.95;4.95;;;19.60;99.90;;;;;;4853570;29;20057;-81
2023/07/09 03:51:39;;;;;;;7.25;5.50;;;19.70;99.90;;;;;;4834865;29;20060;-74
2023/07/09 03:54:07;;;;;;;8.43;5.40;;;19.80;99.90;;;;;;4865931;29;20053;-79
2023/07/09 03:56:34;;;;;;;8.10;4.93;;;19.80;99.90;;;;;;4883822;29;20049;-76
2023/07/09 03:59:01;;;;;;;8.40;4.72;;;19.80;99.90;;;;;;4872727;29;20125;-80
2023/07/09 04:01:37;;;;;;;9.75;5.50;;;19.80;99.90;;;;;;4875755;29;20042;-74
2023/07/09 04:04:08;;;;;;;9.15;5.00;;;19.80;99.90;;;;;;4876464;29;20406;-75
2023/07/09 04:06:35;;;;;;;7.85;5.22;;;19.90;99.90;;;;;;4872033;29;20132;-75
2023/07/09 04:09:03;;;;;;;7.38;4.85;;;19.90;99.90;;;;;;4865281;29;20053;-79
2023/07/09 04:11:38;;;;;;;8.00;5.28;;;19.80;99.90;;;;;;4872759;29;20068;-83
2023/07/09 04:14:11;;;;;;;8.15;5.20;;;19.80;99.90;;;;;;4852429;29;20113;-83
2023/07/09 04:16:46;;;;;;;6.60;4.82;;;19.90;99.90;;;;;;4879245;29;20060;-83
2023/07/09 04:24:04;;;;;;;7.18;4.53;;;19.90;99.90;;;;;;4899356;29;20051;-88
2023/07/09 04:26:31;;;;;;;9.50;4.57;;;19.90;99.90;;;;;;4894029;29;20124;-76
2023/07/09 04:28:59;;;;;;;13.15;4.70;;;20.20;99.90;;;;;;4874874;29;20047;-79
2023/07/09 04:31:29;;;;;;;9.52;4.65;;;20.10;99.90;;;;;;4879700;29;20447;-81
2023/07/09 04:34:04;;;;;;;8.85;4.82;;;20.10;99.90;;;;;;4848447;29;20053;-77
2023/07/09 04:36:32;;;;;;;9.00;4.30;;;20.00;99.90;;;;;;4873773;29;20059;-76
2023/07/09 04:39:03;;;;;;;9.80;4.53;;;20.10;99.90;;;;;;4892538;23;20049;-74
2023/07/09 04:41:30;;;;;;;8.80;4.90;;;20.20;99.90;;;;;;4878713;29;20104;-82
2023/07/09 04:43:58;;;;;;;8.45;5.07;;;20.30;99.90;;;;;;4891508;29;20100;-82
2023/07/09 04:46:27;;;;;;;7.10;4.45;;;20.20;99.90;;;;;;4889869;29;20053;-77
2023/07/09 04:48:57;;;;;;;8.60;4.97;;;20.40;99.90;;;;;;4885784;29;20041;-85
2023/07/09 04:51:29;;;;;;;7.32;4.63;;;20.50;99.90;;;;;;4869641;29;20288;-86
2023/07/09 04:53:56;;;;;;;11.10;5.10;;;20.70;99.90;;;;;;4893217;29;20048;-84
2023/07/09 04:56:24;;;;;;;10.68;4.85;;;20.70;99.90;;;;;;4875209;29;20143;-83
2023/07/09 04:59:01;;;;;;;8.18;4.82;;;20.80;99.90;;;;;;4893604;29;20037;-77
2023/07/09 05:01:34;;;;;;;9.07;4.95;;;20.90;99.90;;;;;;4870718;29;20045;-86
2023/07/09 05:04:09;;;;;;;12.07;4.32;;;20.90;99.90;;;;;;4873913;29;20490;-81
2023/07/09 05:06:43;;;;;;;9.18;4.85;;;20.70;99.90;;;;;;4871049;29;20045;-89
2023/07/09 05:09:10;;;;;;;7.28;4.70;;;20.80;99.90;;;;;;4886132;29;20068;-83
2023/07/09 05:11:37;;;;;;;8.10;4.80;;;20.70;99.90;;;;;;4866020;29;20538;-85
2023/07/09 05:14:08;;;;;;;7.63;4.40;;;20.80;99.90;;;;;;4883612;29;20093;-77
2023/07/09 05:17:40;;;;;;;9.52;4.95;;;21.10;99.90;;;;;;4868459;29;20116;-76
2023/07/09 05:20:22;;;;;;;7.80;4.00;;;21.20;99.90;;;;;;4863928;29;20052;-75
2023/07/09 05:22:49;;;;;;;7.45;4.38;;;21.10;99.90;;;;;;4890232;29;20136;-75
2023/07/09 05:25:17;;;;;;;8.30;4.78;;;21.20;99.90;;;;;;4882736;29;20045;-76
2023/07/09 05:27:51;;;;;;;8.20;4.60;;;21.30;99.90;;;;;;4868995;29;20047;-76
2023/07/09 05:30:19;;;;;;;9.75;4.40;;;21.30;99.90;;;;;;4853139;29;20125;-76
2023/07/09 05:32:47;;;;;;;10.02;4.72;;;21.30;99.90;;;;;;4885655;29;20479;-84
2023/07/09 05:35:14;;;;;;;9.45;4.82;;;21.30;99.90;;;;;;4872575;29;20065;-84
2023/07/09 05:37:42;;;;;;;6.95;4.72;;;21.40;99.90;;;;;;4873524;29;20411;-81
2023/07/09 05:40:10;;;;;;;12.50;4.68;;;21.50;99.90;;;;;;4880241;29;20135;-83
2023/07/09 05:42:42;;;;;;;7.40;5.00;;;21.50;99.90;;;;;;4877449;29;20529;-78
2023/07/09 05:45:16;;;;;;;7.50;4.95;;;21.50;99.90;;;;;;4888458;29;20097;-83
2023/07/09 05:47:48;;;;;;;8.75;4.90;;;21.50;99.90;;;;;;4878635;29;20228;-80
2023/07/09 05:50:43;;;;;;;8.68;5.20;;;21.40;99.90;;;;;;4867736;29;20079;-86
2023/07/09 05:53:11;;;;;;;8.02;5.03;;;21.50;99.90;;;;;;4872122;29;20045;-86
2023/07/09 05:55:38;;;;;;;7.38;5.20;;;21.50;99.90;;;;;;4862643;29;20041;-85
2023/07/09 05:58:20;;;;;;;12.50;5.32;;;21.50;99.90;;;;;;4868999;29;20055;-84
2023/07/09 06:01:05;;;;;;;10.02;5.75;;;21.40;99.90;;;;;;4868183;23;20048;-81
2023/07/09 06:03:33;;;;;;;11.27;5.38;;;21.50;99.90;;;;;;4888388;29;20048;-85
2023/07/09 06:06:01;;;;;;;10.65;5.00;;;21.70;99.90;;;;;;4899033;29;20059;-90
2023/07/09 06:08:54;;;;;;;7.93;5.38;;;21.70;99.90;;;;;;4903742;29;20058;-88
2023/07/09 06:12:05;;;;;;;40.78;29.58;;;21.60;99.90;;;;;;4869977;29;20049;-83
2023/07/09 06:14:44;;;;;;;138.23;87.38;;;21.60;99.90;;;;;;4867760;29;20113;-81
2023/07/09 06:18:11;;;;;;;22.55;15.27;;;21.70;99.90;;;;;;4857066;29;20053;-78
2023/07/09 06:21:11;;;;;;;66.18;45.42;;;21.80;99.90;;;;;;4861334;29;20037;-83
2023/07/09 06:23:53;;;;;;;29.35;19.15;;;22.00;99.90;;;;;;4862837;29;20053;-75
2023/07/09 06:30:25;;;;;;;49.95;34.63;;;22.10;99.90;;;;;;4963770;23;20196;-87
2023/07/09 06:32:56;;;;;;;31.35;20.77;;;22.10;99.90;;;;;;4905928;29;20067;-77
2023/07/09 06:35:23;;;;;;;29.45;20.33;;;22.20;99.90;;;;;;4887096;29;20049;-75
2023/07/09 06:37:56;;;;;;;59.67;38.05;;;22.30;99.90;;;;;;4895481;29;20458;-82
2023/07/09 06:41:44;;;;;;;84.43;54.13;;;22.30;99.90;;;;;;4860702;29;20057;-76
2023/07/09 06:44:37;;;;;;;21.27;14.68;;;22.30;99.90;;;;;;4870274;29;20500;-81
2023/07/09 06:47:20;;;;;;;;;;;;;;;;;;;;;
2023/07/09 06:50:40;;;;;;;86.00;52.72;;;22.50;99.90;;;;;;4886569;29;20193;-82
2023/07/09 06:54:20;;;;;;;19.33;12.77;;;22.60;99.90;;;;;;4858736;29;20103;-80
2023/07/09 06:57:37;;;;;;;15.63;9.85;;;22.50;99.90;;;;;;4809411;29;20115;-84
2023/07/09 07:00:24;;;;;;;12.32;8.85;;;22.60;99.90;;;;;;4838435;29;20067;-80
2023/07/09 07:02:51;;;;;;;13.15;8.02;;;22.70;99.90;;;;;;4885873;29;20128;-76
2023/07/09 07:05:19;;;;;;;9.32;6.07;;;22.70;99.90;;;;;;4872805;29;20081;-79
2023/07/09 07:07:55;;;;;;;8.77;5.57;;;22.70;99.90;;;;;;4871364;29;20056;-82
2023/07/09 07:10:56;;;;;;;9.23;6.03;;;22.80;99.90;;;;;;4875437;29;20053;-76
2023/07/09 07:14:06;;;;;;;9.10;5.95;;;22.90;99.90;;;;;;4866303;29;20052;-76
2023/07/09 07:17:23;;;;;;;8.27;4.75;;;23.20;99.90;;;;;;4865385;29;20060;-85
2023/07/09 07:19:54;;;;;;;10.38;4.88;;;23.20;97.60;;;;;;4877421;29;20059;-78
2023/07/09 07:22:22;;;;;;;7.55;4.32;;;23.30;96.90;;;;;;4877332;29;20649;-84
2023/07/09 07:24:49;;;;;;;8.20;4.10;;;23.60;96.80;;;;;;4881736;29;20433;-85
2023/07/09 07:27:18;;;;;;;6.55;3.95;;;23.60;94.70;;;;;;4874112;29;20116;-88
2023/07/09 07:30:02;;;;;;;7.25;4.22;;;23.60;94.90;;;;;;4866922;29;20055;-79
2023/07/09 07:32:30;;;;;;;9.20;4.65;;;23.80;93.90;;;;;;4857127;29;20092;-76
2023/07/09 07:34:57;;;;;;;8.52;4.20;;;23.90;94.00;;;;;;4885572;29;20405;-80
2023/07/09 07:37:27;;;;;;;10.20;4.20;;;24.00;92.80;;;;;;4889335;29;20405;-76
2023/07/09 07:39:54;;;;;;;5.95;3.75;;;24.00;92.90;;;;;;4880888;29;20056;-77
2023/07/09 07:42:32;;;;;;;33.58;23.85;;;24.20;92.70;;;;;;4860639;29;20067;-74
2023/07/09 07:45:03;;;;;;;12.50;8.55;;;24.30;92.00;;;;;;4859208;29;20053;-75
2023/07/09 07:47:31;;;;;;;6.18;4.20;;;24.40;92.00;;;;;;4862447;29;20044;-75
2023/07/09 07:50:02;;;;;;;9.48;4.22;;;24.30;91.10;;;;;;4846346;29;20108;-73
2023/07/09 07:52:32;;;;;;;13.50;8.95;;;24.30;90.60;;;;;;4849625;29;20060;-72
2023/07/09 07:55:00;;;;;;;10.15;4.97;;;24.40;91.20;;;;;;4875694;29;20414;-72
2023/07/09 07:57:28;;;;;;;7.32;3.55;;;24.40;90.90;;;;;;4846287;29;20382;-74
2023/07/09 07:59:57;;;;;;;6.50;3.70;;;24.30;90.90;;;;;;4834331;29;20117;-72
2023/07/09 08:02:29;;;;;;;5.30;3.10;;;24.40;88.50;;;;;;4869783;29;20120;-72
2023/07/09 08:05:01;;;;;;;8.75;3.50;;;24.50;86.80;;;;;;4879954;29;20131;-73
2023/07/09 08:07:28;;;;;;;4.57;3.05;;;24.50;86.30;;;;;;4861709;29;20056;-72
2023/07/09 08:09:56;;;;;;;5.50;3.40;;;24.70;85.50;;;;;;4874662;29;20096;-71
2023/07/09 08:12:34;;;;;;;6.28;3.55;;;24.80;85.40;;;;;;4863691;29;20130;-76
2023/07/09 08:15:25;;;;;;;51.13;33.17;;;24.70;84.10;;;;;;4857500;29;20532;-72
2023/07/09 08:17:55;;;;;;;24.48;15.80;;;24.80;84.70;;;;;;4881357;29;20052;-72
2023/07/09 08:20:25;;;;;;;9.95;5.82;;;24.90;84.10;;;;;;4883006;29;20041;-76
2023/07/09 08:22:59;;;;;;;11.82;6.82;;;24.90;83.30;;;;;;4842170;29;20053;-75
2023/07/09 08:25:35;;;;;;;6.88;4.07;;;25.10;83.50;;;;;;4862758;29;20089;-74
2023/07/09 08:28:14;;;;;;;13.68;5.38;;;25.10;83.30;;;;;;4847495;29;20049;-73
2023/07/09 08:30:43;;;;;;;6.07;3.60;;;25.00;83.50;;;;;;4861112;29;20052;-74
2023/07/09 08:33:11;;;;;;;6.05;3.42;;;25.00;83.60;;;;;;4859820;29;20056;-74
2023/07/09 08:35:43;;;;;;;6.35;3.22;;;25.10;82.90;;;;;;4861587;29;20141;-75
2023/07/09 08:38:10;;;;;;;5.13;3.22;;;25.00;82.40;;;;;;4839583;29;20049;-73
2023/07/09 08:40:41;;;;;;;8.40;3.75;;;25.00;82.10;;;;;;4854382;29;20050;-74
2023/07/09 08:43:32;;;;;;;5.53;3.05;;;25.10;80.90;;;;;;4856626;29;20101;-76
2023/07/09 08:46:06;;;;;;;14.77;8.45;;;25.00;82.40;;;;;;4851177;29;20113;-73
2023/07/09 08:48:38;;;;;;;18.23;13.20;;;25.30;80.10;;;;;;4861828;29;20049;-75
2023/07/09 08:51:21;;;;;;;6.88;4.10;;;25.40;80.40;;;;;;4862850;29;20045;-75
2023/07/09 08:53:55;;;;;;;7.63;3.33;;;25.20;79.60;;;;;;4855085;29;20053;-73
2023/07/09 08:56:23;;;;;;;6.03;3.20;;;25.30;80.20;;;;;;4854274;29;20054;-73
2023/07/09 08:58:57;;;;;;;6.40;3.08;;;25.40;79.30;;;;;;4864996;29;20041;-74
2023/07/09 09:01:36;;;;;;;6.10;3.40;;;25.50;79.80;;;;;;4876011;29;20109;-73
2023/07/09 09:04:29;;;;;;;6.75;3.30;;;25.60;78.90;;;;;;4850945;29;20114;-72
2023/07/09 09:07:37;;;;;;;9.23;3.20;;;25.60;77.50;;;;;;4858204;29;20049;-72
2023/07/09 09:10:05;;;;;;;8.75;3.00;;;25.40;77.00;;;;;;4843261;29;20050;-74
2023/07/09 09:12:41;;;;;;;5.45;3.35;;;25.40;76.70;;;;;;4858976;29;20101;-74
2023/07/09 09:15:16;;;;;;;6.32;3.15;;;25.50;77.80;;;;;;4844922;29;20054;-73
2023/07/09 09:18:11;;;;;;;6.22;3.22;;;25.60;77.40;;;;;;4860094;29;20081;-75
2023/07/09 09:20:41;;;;;;;10.40;3.05;;;26.00;76.60;;;;;;4864641;29;20098;-73
2023/07/09 09:23:08;;;;;;;5.57;3.00;;;25.90;76.20;;;;;;4859645;29;20062;-72
2023/07/09 09:25:41;;;;;;;5.85;2.97;;;25.80;75.60;;;;;;4859022;29;20150;-73
2023/07/09 09:28:09;;;;;;;6.47;3.15;;;25.80;74.70;;;;;;4858207;29;20061;-73
2023/07/09 09:30:41;;;;;;;7.57;3.10;;;26.10;74.90;;;;;;4857728;29;20142;-75
2023/07/09 09:33:13;;;;;;;6.82;2.88;;;26.10;74.70;;;;;;4860749;29;20061;-75
2023/07/09 09:35:45;;;;;;;5.13;2.60;;;26.10;74.20;;;;;;4845790;29;20081;-73
2023/07/09 09:38:27;;;;;;;5.13;3.00;;;26.00;73.70;;;;;;4857360;29;20080;-73
2023/07/09 09:41:04;;;;;;;4.82;2.80;;;26.00;73.30;;;;;;4841871;29;20135;-76
2023/07/09 09:43:57;;;;;;;7.53;3.13;;;26.00;73.40;;;;;;4851091;29;20049;-75
2023/07/09 09:46:35;;;;;;;5.95;2.83;;;26.10;73.10;;;;;;4842781;29;20628;-75
2023/07/09 09:49:10;;;;;;;5.45;3.20;;;26.10;73.90;;;;;;4856129;29;20065;-73
2023/07/09 09:51:56;;;;;;;9.80;3.08;;;26.40;73.50;;;;;;4854715;29;20059;-73
2023/07/09 09:54:30;;;;;;;11.63;7.80;;;26.40;72.80;;;;;;4848712;29;20065;-75
2023/07/09 09:57:01;;;;;;;23.98;15.55;;;26.40;73.60;;;;;;4855651;29;20061;-74
2023/07/09 09:59:36;;;;;;;65.38;40.85;;;26.60;73.50;;;;;;4861916;29;20041;-77
2023/07/09 10:02:21;;;;;;;14.48;7.68;;;26.80;73.60;;;;;;4857556;29;20406;-78
2023/07/09 10:05:07;;;;;;;;;;;;;;;;;;;;;
2023/07/09 10:15:36;;;;;;;7.20;4.32;;;27.20;72.30;;;;;;4802389;29;20043;-75
2023/07/09 10:18:45;;;;;;;8.25;3.38;;;27.10;72.30;;;;;;4820950;29;20050;-76
2023/07/09 10:21:44;;;;;;;7.28;3.50;;;27.40;70.00;;;;;;4836072;29;20048;-78
2023/07/09 10:29:15;;;;;;;;;;;;;;;;;;;;;
2023/07/09 10:32:31;;;;;;;6.50;2.97;;;27.20;69.50;;;;;;4913186;29;20032;-76
2023/07/09 10:38:46;;;;;;;5.50;3.17;;;27.40;67.90;;;;;;3971128;27;20072;-77
2023/07/09 10:41:41;;;;;;;6.07;3.15;;;27.30;69.20;;;;;;4864161;29;20059;-77
2023/07/09 10:44:14;;;;;;;7.03;3.40;;;27.40;70.40;;;;;;4864201;29;20055;-75
2023/07/09 10:46:50;;;;;;;11.10;3.40;;;27.50;71.50;;;;;;4849982;29;20067;-77
2023/07/09 10:49:19;;;;;;;9.38;3.55;;;27.60;70.30;;;;;;4881125;29;20049;-79
2023/07/09 10:51:59;;;;;;;15.25;7.50;;;27.70;70.20;;;;;;4880096;29;20069;-77
2023/07/09 10:54:52;;;;;;;19.65;13.98;;;27.90;70.60;;;;;;4853722;29;20060;-76
2023/07/09 10:57:46;;;;;;;18.45;12.43;;;27.90;69.60;;;;;;4872925;29;20049;-76
2023/07/09 11:00:20;;;;;;;6.15;4.13;;;27.80;69.30;;;;;;4876609;29;20045;-77
2023/07/09 11:03:02;;;;;;;8.43;3.53;;;27.80;68.70;;;;;;4879741;29;20041;-77
2023/07/09 11:05:33;;;;;;;6.60;2.95;;;27.90;68.00;;;;;;4858691;29;20045;-78
2023/07/09 11:08:35;;;;;;;7.60;3.40;;;28.10;66.60;;;;;;4853035;29;20044;-78
2023/07/09 11:11:13;;;;;;;7.38;3.00;;;28.20;65.30;;;;;;4861291;29;20048;-74
2023/07/09 11:13:46;;;;;;;6.55;3.13;;;28.30;66.50;;;;;;4858942;29;20045;-76
2023/07/09 11:16:41;;;;;;;12.60;6.45;;;28.20;64.40;;;;;;4863226;29;20537;-77
2023/07/09 11:23:16;;;;;;;14.73;8.38;;;28.50;64.30;;;;;;4870011;29;20046;-74
2023/07/09 11:25:47;;;;;;;8.02;4.07;;;28.50;66.70;;;;;;4854785;29;20057;-75
2023/07/09 11:28:15;;;;;;;7.35;3.65;;;28.40;65.00;;;;;;4830834;29;20072;-75
2023/07/09 11:31:04;;;;;;;7.90;3.45;;;28.50;66.30;;;;;;4833201;29;20046;-78
2023/07/09 11:33:33;;;;;;;7.93;4.07;;;28.30;66.00;;;;;;4849715;29;20150;-77
2023/07/09 11:36:09;;;;;;;7.22;3.90;;;28.50;68.00;;;;;;4865469;29;20447;-73
2023/07/09 11:38:43;;;;;;;5.68;2.97;;;28.30;66.60;;;;;;4828398;29;20145;-78
2023/07/09 11:41:43;;;;;;;7.38;3.17;;;28.40;66.50;;;;;;4854092;29;20053;-77
2023/07/09 11:44:31;;;;;;;7.75;3.92;;;28.60;66.60;;;;;;4838498;29;20494;-77
2023/07/09 11:47:17;;;;;;;6.13;3.22;;;28.70;66.00;;;;;;4847352;29;20537;-77
2023/07/09 11:50:22;;;;;;;6.40;3.50;;;28.50;66.30;;;;;;4857646;29;20359;-78
2023/07/09 11:52:58;;;;;;;6.07;3.30;;;28.50;67.20;;;;;;4855530;29;20101;-76
2023/07/09 11:55:43;;;;;;;6.68;3.13;;;28.80;65.80;;;;;;4860785;29;20046;-76
2023/07/09 11:58:15;;;;;;;6.03;3.35;;;28.40;65.90;;;;;;4862978;29;20060;-77
2023/07/09 12:00:45;;;;;;;5.40;3.42;;;28.50;65.90;;;;;;4853184;29;20058;-77
2023/07/09 12:03:36;;;;;;;7.03;3.40;;;28.60;65.20;;;;;;4824199;29;20057;-78
2023/07/09 12:06:30;;;;;;;6.00;3.13;;;28.80;66.00;;;;;;4842276;29;20045;-74
2023/07/09 12:09:02;;;;;;;9.38;3.22;;;28.70;65.40;;;;;;4832463;29;20053;-77
2023/07/09 12:11:44;;;;;;;7.15;3.67;;;28.60;65.80;;;;;;4832600;29;20053;-73
2023/07/09 12:17:30;;;;;;;12.32;4.85;;;28.60;67.20;;;;;;4863194;29;20076;-77
2023/07/09 12:20:47;;;;;;;;;;;;;;;;;;;;;
2023/07/09 12:24:38;;;;;;;;;;;;;;;;;;;;;
2023/07/09 12:27:51;;;;;;;5.55;3.13;;;29.10;66.40;;;;;;4847305;29;20410;-77
2023/07/09 12:30:23;;;;;;;6.00;3.10;;;29.50;66.80;;;;;;4846724;29;20053;-77
2023/07/09 12:32:57;;;;;;;6.70;3.30;;;29.30;65.40;;;;;;4850795;29;20144;-75
2023/07/09 12:35:36;;;;;;;5.68;3.15;;;29.40;65.30;;;;;;4834512;29;20049;-77
2023/07/09 12:38:16;;;;;;;6.55;3.20;;;29.40;64.30;;;;;;4845270;29;20071;-73
2023/07/09 12:41:08;;;;;;;;;;;;;;;;;;;;;
2023/07/09 12:44:21;;;;;;;7.32;3.00;;;29.00;64.50;;;;;;4858258;23;20041;-74
2023/07/09 12:47:29;;;;;;;6.15;3.15;;;29.40;64.60;;;;;;4878016;29;20052;-77
2023/07/09 12:50:33;;;;;;;6.38;3.15;;;29.70;65.00;;;;;;4864814;29;20048;-80
2023/07/09 12:53:25;;;;;;;8.13;2.85;;;29.60;64.90;;;;;;4869892;29;20061;-78
2023/07/09 12:56:17;;;;;;;6.18;2.88;;;29.80;63.80;;;;;;4854681;29;20047;-78
2023/07/09 12:59:24;;;;;;;9.13;3.13;;;29.90;64.20;;;;;;4875664;29;20057;-74
2023/07/09 13:02:40;;;;;;;6.65;2.92;;;29.80;63.70;;;;;;4849343;27;20105;-78
2023/07/09 13:05:40;;;;;;;5.45;2.50;;;29.70;62.00;;;;;;4880616;29;20077;-79
2023/07/09 13:08:17;;;;;;;4.78;2.45;;;29.50;62.20;;;;;;4860642;29;20052;-80
2023/07/09 13:10:44;;;;;;;6.03;2.28;;;29.70;62.30;;;;;;4886656;29;20125;-81
2023/07/09 13:13:14;;;;;;;5.35;2.50;;;29.70;60.80;;;;;;4874311;29;20037;-81
2023/07/09 13:15:56;;;;;;;5.90;2.15;;;29.80;58.70;;;;;;4884829;29;20040;-80
2023/07/09 13:19:03;;;;;;;5.07;2.35;;;29.50;60.30;;;;;;4851401;29;20113;-78
2023/07/09 13:22:08;;;;;;;4.57;2.03;;;29.50;60.20;;;;;;4862903;29;20054;-73
2023/07/09 13:24:58;;;;;;;4.95;2.15;;;29.80;54.10;;;;;;4852356;29;20437;-78
2023/07/09 13:27:45;;;;;;;3.78;2.20;;;29.90;54.90;;;;;;4884830;29;20112;-85
2023/07/09 13:30:38;;;;;;;6.13;2.40;;;29.90;55.30;;;;;;4866527;29;20098;-83
2023/07/09 13:33:15;;;;;;;6.82;2.83;;;30.00;55.70;;;;;;4862211;29;20052;-74
2023/07/09 13:35:45;;;;;;;5.80;2.75;;;29.70;57.70;;;;;;4881188;29;20080;-71
2023/07/09 13:38:33;;;;;;;4.60;2.17;;;29.80;58.50;;;;;;4869553;29;20055;-74
2023/07/09 13:41:25;;;;;;;4.25;2.20;;;30.00;59.10;;;;;;4856797;29;20386;-76
2023/07/09 13:43:53;;;;;;;5.22;2.88;;;30.00;57.80;;;;;;4863182;29;20102;-73
2023/07/09 13:46:25;;;;;;;4.15;2.20;;;30.00;57.90;;;;;;4878375;29;20136;-75
2023/07/09 13:48:52;;;;;;;4.80;2.30;;;30.00;57.70;;;;;;4877242;29;20033;-83
2023/07/09 13:51:42;;;;;;;7.72;4.10;;;30.00;57.80;;;;;;4870898;29;20557;-77
2023/07/09 13:54:49;;;;;;;130.15;92.25;;;30.00;57.80;;;;;;4875357;29;20064;-75
2023/07/09 13:57:21;;;;;;;16.50;11.85;;;29.80;58.90;;;;;;4879936;29;20052;-76
2023/07/09 13:59:51;;;;;;;6.05;3.60;;;30.10;57.20;;;;;;4847294;29;20055;-79
2023/07/09 14:03:21;;;;;;;;;;;;;;;;;;;;;
2023/07/09 14:06:17;;;;;;;5.05;2.80;;;30.10;57.30;;;;;;4832352;29;20132;-76
2023/07/09 14:08:45;;;;;;;7.63;2.75;;;30.40;57.00;;;;;;4862775;29;20483;-75
2023/07/09 14:11:15;;;;;;;5.72;2.80;;;30.30;56.00;;;;;;4857553;29;20038;-80
2023/07/09 14:13:45;;;;;;;6.10;2.70;;;30.30;57.00;;;;;;4869397;29;20069;-77
2023/07/09 14:16:15;;;;;;;7.95;3.40;;;30.40;57.40;;;;;;4861364;29;20375;-77
2023/07/09 14:19:02;;;;;;;4.22;2.45;;;30.20;59.40;;;;;;4869730;29;20054;-75
2023/07/09 14:21:59;;;;;;;6.30;3.05;;;30.20;55.20;;;;;;4873943;29;20355;-78
2023/07/09 14:25:06;;;;;;;55.25;44.55;;;30.20;57.10;;;;;;4841867;29;20148;-74
2023/07/09 14:28:38;;;;;;;;;;;;;;;;;;;;;
2023/07/09 14:31:37;;;;;;;8.70;6.45;;;30.30;58.50;;;;;;4855953;29;20197;-75
2023/07/09 14:37:54;;;;;;;29.67;23.35;;;30.40;59.80;;;;;;4360947;27;20049;-76